sensor_id;sensor_type;location;lat;lon;timestamp;temperature;humidity
4755;DHT22;2391;47.212;7.542;2023-03-14T00:00:49;12.60;99.90
4755;DHT22;2391;47.212;7.542;2023-03-14T00:03:14;12.50;99.90
4755;DHT22;2391;47.212;7.542;2023-03-14T00:05:40;12.40;99.90
4755;DHT22;2391;47.212;7.542;2023-03-14T00:08:06;12.30;99.90
4755;DHT22;2391;47.212;7.542;2023-03-14T00:10:31;12.30;99.90
4755;DHT22;2391;47.212;7.542;2023-03-14T00:12:57;12.30;99.90
4755;DHT22;2391;47.212;7.542;2023-03-14T00:15:23;12.20;99.90
4755;DHT22;2391;47.212;7.542;2023-03-14T00:17:49;12.10;99.90
4755;DHT22;2391;47.212;7.542;2023-03-14T00:20:14;12.10;99.90
4755;DHT22;2391;47.212;7.542;2023-03-14T00:22:41;12.10;99.90
4755;DHT22;2391;47.212;7.542;2023-03-14T00:25:08;12.10;99.90
4755;DHT22;2391;47.212;7.542;2023-03-14T00:27:34;12.00;99.90
4755;DHT22;2391;47.212;7.542;2023-03-14T00:30:01;11.90;99.90
4755;DHT22;2391;47.212;7.542;2023-03-14T00:32:26;11.90;99.90
4755;DHT22;2391;47.212;7.542;2023-03-14T00:34:52;11.90;99.90
4755;DHT22;2391;47.212;7.542;2023-03-14T00:37:18;11.80;99.90
4755;DHT22;2391;47.212;7.542;2023-03-14T00:39:44;11.80;99.90
4755;DHT22;2391;47.212;7.542;2023-03-14T00:42:10;11.70;99.90
4755;DHT22;2391;47.212;7.542;2023-03-14T00:44:36;11.70;99.90
4755;DHT22;2391;47.212;7.542;2023-03-14T00:47:02;11.70;99.90
4755;DHT22;2391;47.212;7.542;2023-03-14T00:49:28;11.60;99.90
4755;DHT22;2391;47.212;7.542;2023-03-14T00:51:53;11.50;99.90
4755;DHT22;2391;47.212;7.542;2023-03-14T00:54:20;11.40;99.90
4755;DHT22;2391;47.212;7.542;2023-03-14T00:56:46;11.40;99.90
4755;DHT22;2391;47.212;7.542;2023-03-14T00:59:12;11.30;99.90
4755;DHT22;2391;47.212;7.542;2023-03-14T01:01:39;11.30;99.90
4755;DHT22;2391;47.212;7.542;2023-03-14T01:04:05;11.30;99.90
4755;DHT22;2391;47.212;7.542;2023-03-14T01:06:31;11.20;99.90
4755;DHT22;2391;47.212;7.542;2023-03-14T01:08:57;11.20;99.90
4755;DHT22;2391;47.212;7.542;2023-03-14T01:11:26;11.10;99.90
4755;DHT22;2391;47.212;7.542;2023-03-14T01:13:53;11.10;99.90
4755;DHT22;2391;47.212;7.542;2023-03-14T01:16:21;11.00;99.90
4755;DHT22;2391;47.212;7.542;2023-03-14T01:18:48;10.90;99.90
4755;DHT22;2391;47.212;7.542;2023-03-14T01:21:26;10.90;99.90
4755;DHT22;2391;47.212;7.542;2023-03-14T01:23:54;10.90;99.90
4755;DHT22;2391;47.212;7.542;2023-03-14T01:26:22;10.90;99.90
4755;DHT22;2391;47.212;7.542;2023-03-14T01:28:49;11.00;99.90
4755;DHT22;2391;47.212;7.542;2023-03-14T01:31:15;11.00;99.90
4755;DHT22;2391;47.212;7.542;2023-03-14T01:33:42;11.10;99.90
4755;DHT22;2391;47.212;7.542;2023-03-14T01:36:08;11.10;99.90
4755;DHT22;2391;47.212;7.542;2023-03-14T01:38:36;11.10;99.90
4755;DHT22;2391;47.212;7.542;2023-03-14T01:41:03;11.00;99.90
4755;DHT22;2391;47.212;7.542;2023-03-14T01:43:30;11.00;99.90
4755;DHT22;2391;47.212;7.542;2023-03-14T01:48:47;11.00;99.90
4755;DHT22;2391;47.212;7.542;2023-03-14T01:51:13;11.00;99.90
4755;DHT22;2391;47.212;7.542;2023-03-14T01:53:40;11.00;99.90
4755;DHT22;2391;47.212;7.542;2023-03-14T01:56:09;11.00;99.90
4755;DHT22;2391;47.212;7.542;2023-03-14T01:58:37;11.00;99.90
4755;DHT22;2391;47.212;7.542;2023-03-14T02:01:06;11.00;99.90
4755;DHT22;2391;47.212;7.542;2023-03-14T02:03:36;11.00;99.90
4755;DHT22;2391;47.212;7.542;2023-03-14T02:06:06;11.00;99.90
4755;DHT22;2391;47.212;7.542;2023-03-14T02:08:33;11.00;99.90
4755;DHT22;2391;47.212;7.542;2023-03-14T02:10:59;11.00;99.90
4755;DHT22;2391;47.212;7.542;2023-03-14T02:13:25;11.00;99.90
4755;DHT22;2391;47.212;7.542;2023-03-14T02:15:51;10.90;99.90
4755;DHT22;2391;47.212;7.542;2023-03-14T02:18:17;10.90;99.90
4755;DHT22;2391;47.212;7.542;2023-03-14T02:23:49;10.80;99.90
4755;DHT22;2391;47.212;7.542;2023-03-14T02:26:31;10.80;99.90
4755;DHT22;2391;47.212;7.542;2023-03-14T02:28:55;10.60;99.90
4755;DHT22;2391;47.212;7.542;2023-03-14T02:31:22;10.50;99.90
4755;DHT22;2391;47.212;7.542;2023-03-14T02:33:49;10.40;99.90
4755;DHT22;2391;47.212;7.542;2023-03-14T02:36:17;10.30;99.90
4755;DHT22;2391;47.212;7.542;2023-03-14T02:39:11;10.30;99.90
4755;DHT22;2391;47.212;7.542;2023-03-14T02:41:35;10.30;99.90
4755;DHT22;2391;47.212;7.542;2023-03-14T02:44:01;10.40;99.90
4755;DHT22;2391;47.212;7.542;2023-03-14T02:46:27;10.30;99.90
4755;DHT22;2391;47.212;7.542;2023-03-14T02:49:01;10.30;99.90
4755;DHT22;2391;47.212;7.542;2023-03-14T02:51:26;10.30;99.90
4755;DHT22;2391;47.212;7.542;2023-03-14T02:53:51;10.20;99.90
4755;DHT22;2391;47.212;7.542;2023-03-14T02:56:17;10.10;99.90
4755;DHT22;2391;47.212;7.542;2023-03-14T02:58:43;10.10;99.90
4755;DHT22;2391;47.212;7.542;2023-03-14T03:01:09;10.10;99.90
4755;DHT22;2391;47.212;7.542;2023-03-14T03:03:35;10.10;99.90
4755;DHT22;2391;47.212;7.542;2023-03-14T03:06:01;10.10;99.90
4755;DHT22;2391;47.212;7.542;2023-03-14T03:08:28;10.10;99.90
4755;DHT22;2391;47.212;7.542;2023-03-14T03:10:55;10.00;99.90
4755;DHT22;2391;47.212;7.542;2023-03-14T03:13:21;10.00;99.90
4755;DHT22;2391;47.212;7.542;2023-03-14T03:15:47;9.90;99.90
4755;DHT22;2391;47.212;7.542;2023-03-14T03:18:13;9.90;99.90
4755;DHT22;2391;47.212;7.542;2023-03-14T03:20:39;9.80;99.90
4755;DHT22;2391;47.212;7.542;2023-03-14T03:23:04;9.80;99.90
4755;DHT22;2391;47.212;7.542;2023-03-14T03:25:30;9.90;99.90
4755;DHT22;2391;47.212;7.542;2023-03-14T03:27:56;9.90;99.90
4755;DHT22;2391;47.212;7.542;2023-03-14T03:30:22;10.00;99.90
4755;DHT22;2391;47.212;7.542;2023-03-14T03:32:48;10.00;99.90
4755;DHT22;2391;47.212;7.542;2023-03-14T03:35:14;10.00;99.90
4755;DHT22;2391;47.212;7.542;2023-03-14T03:37:40;10.10;99.90
4755;DHT22;2391;47.212;7.542;2023-03-14T03:40:06;10.20;99.90
4755;DHT22;2391;47.212;7.542;2023-03-14T03:42:33;10.10;99.90
4755;DHT22;2391;47.212;7.542;2023-03-14T03:45:00;10.10;99.90
4755;DHT22;2391;47.212;7.542;2023-03-14T03:47:26;10.10;99.90
4755;DHT22;2391;47.212;7.542;2023-03-14T03:49:52;10.00;99.90
4755;DHT22;2391;47.212;7.542;2023-03-14T03:52:18;9.90;99.90
4755;DHT22;2391;47.212;7.542;2023-03-14T03:54:44;9.80;99.90
4755;DHT22;2391;47.212;7.542;2023-03-14T03:57:10;9.90;99.90
4755;DHT22;2391;47.212;7.542;2023-03-14T03:59:35;9.90;99.90
4755;DHT22;2391;47.212;7.542;2023-03-14T04:02:01;10.00;99.90
4755;DHT22;2391;47.212;7.542;2023-03-14T04:04:27;10.00;99.90
4755;DHT22;2391;47.212;7.542;2023-03-14T04:06:55;10.10;99.90
4755;DHT22;2391;47.212;7.542;2023-03-14T04:09:20;10.00;99.90
4755;DHT22;2391;47.212;7.542;2023-03-14T04:11:46;10.00;99.90
4755;DHT22;2391;47.212;7.542;2023-03-14T04:14:12;10.00;99.90
4755;DHT22;2391;47.212;7.542;2023-03-14T04:16:37;10.10;99.90
4755;DHT22;2391;47.212;7.542;2023-03-14T04:19:03;10.10;99.90
4755;DHT22;2391;47.212;7.542;2023-03-14T04:21:29;10.10;99.90
4755;DHT22;2391;47.212;7.542;2023-03-14T04:23:54;10.20;99.90
4755;DHT22;2391;47.212;7.542;2023-03-14T04:26:20;10.20;99.90
4755;DHT22;2391;47.212;7.542;2023-03-14T04:28:46;10.20;99.90
4755;DHT22;2391;47.212;7.542;2023-03-14T04:31:14;10.20;99.90
4755;DHT22;2391;47.212;7.542;2023-03-14T04:33:40;10.20;99.90
4755;DHT22;2391;47.212;7.542;2023-03-14T04:36:07;10.10;99.90
4755;DHT22;2391;47.212;7.542;2023-03-14T04:38:33;10.20;99.90
4755;DHT22;2391;47.212;7.542;2023-03-14T04:40:59;10.20;99.90
4755;DHT22;2391;47.212;7.542;2023-03-14T04:43:26;10.20;99.90
4755;DHT22;2391;47.212;7.542;2023-03-14T04:45:56;10.20;99.90
4755;DHT22;2391;47.212;7.542;2023-03-14T04:48:23;10.10;99.90
4755;DHT22;2391;47.212;7.542;2023-03-14T04:50:49;10.10;99.90
4755;DHT22;2391;47.212;7.542;2023-03-14T04:53:16;10.00;99.90
4755;DHT22;2391;47.212;7.542;2023-03-14T04:55:42;9.90;99.90
4755;DHT22;2391;47.212;7.542;2023-03-14T04:58:10;9.90;99.90
4755;DHT22;2391;47.212;7.542;2023-03-14T05:00:35;9.90;99.90
4755;DHT22;2391;47.212;7.542;2023-03-14T05:03:01;9.90;99.90
4755;DHT22;2391;47.212;7.542;2023-03-14T05:05:27;9.90;99.90
4755;DHT22;2391;47.212;7.542;2023-03-14T05:07:52;9.80;99.90
4755;DHT22;2391;47.212;7.542;2023-03-14T05:10:18;9.80;99.90
4755;DHT22;2391;47.212;7.542;2023-03-14T05:12:44;9.70;99.90
4755;DHT22;2391;47.212;7.542;2023-03-14T05:15:10;9.70;99.90
4755;DHT22;2391;47.212;7.542;2023-03-14T05:17:35;9.70;99.90
4755;DHT22;2391;47.212;7.542;2023-03-14T05:20:02;9.70;99.90
4755;DHT22;2391;47.212;7.542;2023-03-14T05:22:30;9.70;99.90
4755;DHT22;2391;47.212;7.542;2023-03-14T05:24:55;9.70;99.90
4755;DHT22;2391;47.212;7.542;2023-03-14T05:27:23;9.70;99.90
4755;DHT22;2391;47.212;7.542;2023-03-14T05:29:49;9.70;99.90
4755;DHT22;2391;47.212;7.542;2023-03-14T05:32:14;9.60;99.90
4755;DHT22;2391;47.212;7.542;2023-03-14T05:34:40;9.60;99.90
4755;DHT22;2391;47.212;7.542;2023-03-14T05:37:06;9.60;99.90
4755;DHT22;2391;47.212;7.542;2023-03-14T05:39:32;9.40;99.90
4755;DHT22;2391;47.212;7.542;2023-03-14T05:41:58;9.50;99.90
4755;DHT22;2391;47.212;7.542;2023-03-14T05:44:24;9.50;99.90
4755;DHT22;2391;47.212;7.542;2023-03-14T05:46:49;9.50;99.90
4755;DHT22;2391;47.212;7.542;2023-03-14T05:49:15;9.50;99.90
4755;DHT22;2391;47.212;7.542;2023-03-14T05:51:42;9.50;99.90
4755;DHT22;2391;47.212;7.542;2023-03-14T05:54:08;9.40;99.90
4755;DHT22;2391;47.212;7.542;2023-03-14T05:56:33;9.40;99.90
4755;DHT22;2391;47.212;7.542;2023-03-14T05:58:59;9.50;99.90
4755;DHT22;2391;47.212;7.542;2023-03-14T06:01:26;9.50;99.90
4755;DHT22;2391;47.212;7.542;2023-03-14T06:03:52;9.50;99.90
4755;DHT22;2391;47.212;7.542;2023-03-14T06:06:18;9.50;99.90
4755;DHT22;2391;47.212;7.542;2023-03-14T06:08:44;9.60;99.90
4755;DHT22;2391;47.212;7.542;2023-03-14T06:11:09;9.60;99.90
4755;DHT22;2391;47.212;7.542;2023-03-14T06:13:35;9.60;99.90
4755;DHT22;2391;47.212;7.542;2023-03-14T06:16:01;9.60;99.90
4755;DHT22;2391;47.212;7.542;2023-03-14T06:18:27;9.60;99.90
4755;DHT22;2391;47.212;7.542;2023-03-14T06:20:56;9.60;99.90
4755;DHT22;2391;47.212;7.542;2023-03-14T06:23:22;9.60;99.90
4755;DHT22;2391;47.212;7.542;2023-03-14T06:25:48;9.70;99.90
4755;DHT22;2391;47.212;7.542;2023-03-14T06:28:14;9.70;99.90
4755;DHT22;2391;47.212;7.542;2023-03-14T06:30:40;9.70;99.90
4755;DHT22;2391;47.212;7.542;2023-03-14T06:33:06;9.80;99.90
4755;DHT22;2391;47.212;7.542;2023-03-14T06:35:32;9.80;99.90
4755;DHT22;2391;47.212;7.542;2023-03-14T06:37:57;9.90;99.90
4755;DHT22;2391;47.212;7.542;2023-03-14T06:40:23;9.90;99.90
4755;DHT22;2391;47.212;7.542;2023-03-14T06:42:50;9.90;99.90
4755;DHT22;2391;47.212;7.542;2023-03-14T06:45:15;9.90;99.90
4755;DHT22;2391;47.212;7.542;2023-03-14T06:47:41;9.90;99.90
4755;DHT22;2391;47.212;7.542;2023-03-14T06:50:08;9.90;99.90
4755;DHT22;2391;47.212;7.542;2023-03-14T06:52:34;10.00;99.90
4755;DHT22;2391;47.212;7.542;2023-03-14T06:55:00;10.00;99.90
4755;DHT22;2391;47.212;7.542;2023-03-14T06:57:25;10.10;99.90
4755;DHT22;2391;47.212;7.542;2023-03-14T06:59:51;10.10;99.90
4755;DHT22;2391;47.212;7.542;2023-03-14T07:02:17;10.10;99.90
4755;DHT22;2391;47.212;7.542;2023-03-14T07:04:42;10.20;99.90
4755;DHT22;2391;47.212;7.542;2023-03-14T07:07:08;10.20;99.90
4755;DHT22;2391;47.212;7.542;2023-03-14T07:09:34;10.20;99.90
4755;DHT22;2391;47.212;7.542;2023-03-14T07:12:01;10.20;99.90
4755;DHT22;2391;47.212;7.542;2023-03-14T07:14:28;10.20;99.90
4755;DHT22;2391;47.212;7.542;2023-03-14T07:16:53;10.10;99.90
4755;DHT22;2391;47.212;7.542;2023-03-14T07:19:19;10.10;99.90
4755;DHT22;2391;47.212;7.542;2023-03-14T07:21:45;10.10;99.90
4755;DHT22;2391;47.212;7.542;2023-03-14T07:24:10;10.10;99.90
4755;DHT22;2391;47.212;7.542;2023-03-14T07:26:36;10.10;99.90
4755;DHT22;2391;47.212;7.542;2023-03-14T07:29:02;10.00;99.90
4755;DHT22;2391;47.212;7.542;2023-03-14T07:31:30;10.00;99.90
4755;DHT22;2391;47.212;7.542;2023-03-14T07:33:57;10.10;99.90
4755;DHT22;2391;47.212;7.542;2023-03-14T07:36:22;10.00;99.90
4755;DHT22;2391;47.212;7.542;2023-03-14T07:38:48;10.00;99.90
4755;DHT22;2391;47.212;7.542;2023-03-14T07:41:14;9.90;99.90
4755;DHT22;2391;47.212;7.542;2023-03-14T07:43:40;9.90;99.90
4755;DHT22;2391;47.212;7.542;2023-03-14T07:46:07;9.90;99.90
4755;DHT22;2391;47.212;7.542;2023-03-14T07:48:33;9.80;99.90
4755;DHT22;2391;47.212;7.542;2023-03-14T07:50:59;9.70;99.90
4755;DHT22;2391;47.212;7.542;2023-03-14T07:53:25;9.70;99.90
4755;DHT22;2391;47.212;7.542;2023-03-14T07:55:52;9.60;99.90
4755;DHT22;2391;47.212;7.542;2023-03-14T07:58:19;9.60;99.90
4755;DHT22;2391;47.212;7.542;2023-03-14T08:00:45;9.70;99.90
4755;DHT22;2391;47.212;7.542;2023-03-14T08:03:10;9.70;99.90
4755;DHT22;2391;47.212;7.542;2023-03-14T08:05:37;9.70;99.90
4755;DHT22;2391;47.212;7.542;2023-03-14T08:08:04;9.60;99.90
4755;DHT22;2391;47.212;7.542;2023-03-14T08:10:30;9.50;99.90
4755;DHT22;2391;47.212;7.542;2023-03-14T08:12:58;9.50;99.90
4755;DHT22;2391;47.212;7.542;2023-03-14T08:15:25;9.50;99.90
4755;DHT22;2391;47.212;7.542;2023-03-14T08:17:52;9.50;99.90
4755;DHT22;2391;47.212;7.542;2023-03-14T08:20:21;9.40;99.90
4755;DHT22;2391;47.212;7.542;2023-03-14T08:22:47;9.40;99.90
4755;DHT22;2391;47.212;7.542;2023-03-14T08:25:13;9.30;99.90
4755;DHT22;2391;47.212;7.542;2023-03-14T08:27:39;9.30;99.90
4755;DHT22;2391;47.212;7.542;2023-03-14T08:30:10;9.40;99.90
4755;DHT22;2391;47.212;7.542;2023-03-14T08:32:37;9.30;99.90
4755;DHT22;2391;47.212;7.542;2023-03-14T08:35:04;9.30;99.90
4755;DHT22;2391;47.212;7.542;2023-03-14T08:37:32;9.20;99.90
4755;DHT22;2391;47.212;7.542;2023-03-14T08:39:58;9.30;99.90
4755;DHT22;2391;47.212;7.542;2023-03-14T08:42:24;9.30;99.90
4755;DHT22;2391;47.212;7.542;2023-03-14T08:44:52;9.30;99.90
4755;DHT22;2391;47.212;7.542;2023-03-14T08:47:18;9.30;99.90
4755;DHT22;2391;47.212;7.542;2023-03-14T08:49:43;9.20;99.90
4755;DHT22;2391;47.212;7.542;2023-03-14T08:52:09;9.20;99.90
4755;DHT22;2391;47.212;7.542;2023-03-14T08:54:35;9.20;99.90
4755;DHT22;2391;47.212;7.542;2023-03-14T08:57:01;9.20;99.90
4755;DHT22;2391;47.212;7.542;2023-03-14T08:59:27;9.20;99.90
4755;DHT22;2391;47.212;7.542;2023-03-14T09:01:52;9.20;99.90
4755;DHT22;2391;47.212;7.542;2023-03-14T09:04:20;9.10;99.90
4755;DHT22;2391;47.212;7.542;2023-03-14T09:06:46;9.00;99.90
4755;DHT22;2391;47.212;7.542;2023-03-14T09:09:11;9.00;99.90
4755;DHT22;2391;47.212;7.542;2023-03-14T09:11:39;9.00;99.90
4755;DHT22;2391;47.212;7.542;2023-03-14T09:14:05;9.00;99.90
4755;DHT22;2391;47.212;7.542;2023-03-14T09:16:33;9.00;99.90
4755;DHT22;2391;47.212;7.542;2023-03-14T09:18:59;9.00;99.90
4755;DHT22;2391;47.212;7.542;2023-03-14T09:21:27;9.00;99.90
4755;DHT22;2391;47.212;7.542;2023-03-14T09:23:52;9.00;99.90
4755;DHT22;2391;47.212;7.542;2023-03-14T09:26:18;9.00;99.90
4755;DHT22;2391;47.212;7.542;2023-03-14T09:28:44;9.00;99.90
4755;DHT22;2391;47.212;7.542;2023-03-14T09:31:11;9.00;99.90
4755;DHT22;2391;47.212;7.542;2023-03-14T09:33:37;9.10;99.90
4755;DHT22;2391;47.212;7.542;2023-03-14T09:36:04;9.00;99.90
4755;DHT22;2391;47.212;7.542;2023-03-14T09:38:30;9.00;99.90
4755;DHT22;2391;47.212;7.542;2023-03-14T09:41:00;9.00;99.90
4755;DHT22;2391;47.212;7.542;2023-03-14T09:43:29;9.00;99.90
4755;DHT22;2391;47.212;7.542;2023-03-14T09:45:57;9.00;99.90
4755;DHT22;2391;47.212;7.542;2023-03-14T09:48:29;9.00;99.90
4755;DHT22;2391;47.212;7.542;2023-03-14T09:50:58;8.90;99.90
4755;DHT22;2391;47.212;7.542;2023-03-14T09:53:27;8.90;99.90
4755;DHT22;2391;47.212;7.542;2023-03-14T09:55:54;8.90;99.90
4755;DHT22;2391;47.212;7.542;2023-03-14T09:58:23;8.80;99.90
4755;DHT22;2391;47.212;7.542;2023-03-14T10:00:51;8.80;99.90
4755;DHT22;2391;47.212;7.542;2023-03-14T10:03:32;8.80;99.90
4755;DHT22;2391;47.212;7.542;2023-03-14T10:05:58;8.70;99.90
4755;DHT22;2391;47.212;7.542;2023-03-14T10:08:25;8.70;99.90
4755;DHT22;2391;47.212;7.542;2023-03-14T10:10:51;8.70;99.90
4755;DHT22;2391;47.212;7.542;2023-03-14T10:13:25;8.70;99.90
4755;DHT22;2391;47.212;7.542;2023-03-14T10:15:55;8.70;99.90
4755;DHT22;2391;47.212;7.542;2023-03-14T10:18:23;8.60;99.90
4755;DHT22;2391;47.212;7.542;2023-03-14T10:21:00;8.60;99.90
4755;DHT22;2391;47.212;7.542;2023-03-14T10:23:24;8.60;99.90
4755;DHT22;2391;47.212;7.542;2023-03-14T10:26:06;8.60;99.90
4755;DHT22;2391;47.212;7.542;2023-03-14T10:28:53;8.60;99.90
4755;DHT22;2391;47.212;7.542;2023-03-14T10:31:27;8.60;99.90
4755;DHT22;2391;47.212;7.542;2023-03-14T10:33:59;8.50;99.90
4755;DHT22;2391;47.212;7.542;2023-03-14T10:36:30;8.40;99.90
4755;DHT22;2391;47.212;7.542;2023-03-14T10:41:50;8.40;99.90
4755;DHT22;2391;47.212;7.542;2023-03-14T10:44:21;8.20;99.90
4755;DHT22;2391;47.212;7.542;2023-03-14T10:46:56;8.20;99.90
4755;DHT22;2391;47.212;7.542;2023-03-14T10:49:42;8.20;99.90
4755;DHT22;2391;47.212;7.542;2023-03-14T10:51:55;8.20;99.90
4755;DHT22;2391;47.212;7.542;2023-03-14T10:54:22;8.20;99.90
4755;DHT22;2391;47.212;7.542;2023-03-14T10:56:59;8.20;99.90
4755;DHT22;2391;47.212;7.542;2023-03-14T10:59:29;8.20;99.90
4755;DHT22;2391;47.212;7.542;2023-03-14T11:01:58;8.20;99.90
4755;DHT22;2391;47.212;7.542;2023-03-14T11:13:00;8.10;99.90
4755;DHT22;2391;47.212;7.542;2023-03-14T11:18:45;8.20;99.90
4755;DHT22;2391;47.212;7.542;2023-03-14T11:26:59;8.20;99.90
4755;DHT22;2391;47.212;7.542;2023-03-14T11:31:59;8.30;99.90
4755;DHT22;2391;47.212;7.542;2023-03-14T11:34:49;8.40;99.90
4755;DHT22;2391;47.212;7.542;2023-03-14T11:37:17;8.50;99.90
4755;DHT22;2391;47.212;7.542;2023-03-14T11:39:47;8.60;99.90
4755;DHT22;2391;47.212;7.542;2023-03-14T11:42:16;8.70;99.90
4755;DHT22;2391;47.212;7.542;2023-03-14T11:44:46;8.80;99.90
4755;DHT22;2391;47.212;7.542;2023-03-14T11:47:28;8.90;99.90
4755;DHT22;2391;47.212;7.542;2023-03-14T11:52:47;9.10;99.90
4755;DHT22;2391;47.212;7.542;2023-03-14T11:57:51;9.10;99.90
4755;DHT22;2391;47.212;7.542;2023-03-14T12:00:21;9.10;99.90
4755;DHT22;2391;47.212;7.542;2023-03-14T12:03:09;9.10;99.90
4755;DHT22;2391;47.212;7.542;2023-03-14T12:13:16;9.20;99.90
4755;DHT22;2391;47.212;7.542;2023-03-14T12:15:54;9.30;99.90
4755;DHT22;2391;47.212;7.542;2023-03-14T12:18:20;9.30;99.90
4755;DHT22;2391;47.212;7.542;2023-03-14T12:20:56;9.30;99.40
4755;DHT22;2391;47.212;7.542;2023-03-14T12:23:19;9.20;99.40
4755;DHT22;2391;47.212;7.542;2023-03-14T12:25:45;9.20;99.60
4755;DHT22;2391;47.212;7.542;2023-03-14T12:28:20;9.20;99.10
4755;DHT22;2391;47.212;7.542;2023-03-14T12:30:46;9.10;99.20
4755;DHT22;2391;47.212;7.542;2023-03-14T12:35:49;9.20;99.30
4755;DHT22;2391;47.212;7.542;2023-03-14T12:41:24;9.30;98.60
4755;DHT22;2391;47.212;7.542;2023-03-14T12:43:50;9.30;98.30
4755;DHT22;2391;47.212;7.542;2023-03-14T12:48:54;9.40;97.20
4755;DHT22;2391;47.212;7.542;2023-03-14T12:51:20;9.40;97.00
4755;DHT22;2391;47.212;7.542;2023-03-14T12:59:45;9.50;98.30
4755;DHT22;2391;47.212;7.542;2023-03-14T13:05:09;9.60;98.50
4755;DHT22;2391;47.212;7.542;2023-03-14T13:10:26;9.70;97.80
4755;DHT22;2391;47.212;7.542;2023-03-14T13:15:38;9.90;98.00
4755;DHT22;2391;47.212;7.542;2023-03-14T13:18:26;10.00;97.50
4755;DHT22;2391;47.212;7.542;2023-03-14T13:20:59;10.10;97.70
4755;DHT22;2391;47.212;7.542;2023-03-14T13:23:31;10.20;94.70
4755;DHT22;2391;47.212;7.542;2023-03-14T13:25:59;10.30;94.90
4755;DHT22;2391;47.212;7.542;2023-03-14T13:28:27;10.40;94.30
4755;DHT22;2391;47.212;7.542;2023-03-14T13:30:59;10.50;93.60
4755;DHT22;2391;47.212;7.542;2023-03-14T13:33:26;10.60;92.90
4755;DHT22;2391;47.212;7.542;2023-03-14T13:38:33;10.70;93.20
4755;DHT22;2391;47.212;7.542;2023-03-14T13:41:00;10.70;93.70
4755;DHT22;2391;47.212;7.542;2023-03-14T13:43:30;10.60;93.90
4755;DHT22;2391;47.212;7.542;2023-03-14T13:46:05;10.60;93.60
4755;DHT22;2391;47.212;7.542;2023-03-14T13:48:35;10.70;93.80
4755;DHT22;2391;47.212;7.542;2023-03-14T13:51:04;10.70;94.00
4755;DHT22;2391;47.212;7.542;2023-03-14T13:53:32;10.70;93.90
4755;DHT22;2391;47.212;7.542;2023-03-14T13:56:03;10.80;93.80
4755;DHT22;2391;47.212;7.542;2023-03-14T13:58:30;10.80;93.10
4755;DHT22;2391;47.212;7.542;2023-03-14T14:00:59;10.80;93.40
4755;DHT22;2391;47.212;7.542;2023-03-14T14:03:27;10.80;93.00
4755;DHT22;2391;47.212;7.542;2023-03-14T14:05:56;10.80;93.40
4755;DHT22;2391;47.212;7.542;2023-03-14T14:08:23;10.80;93.10
4755;DHT22;2391;47.212;7.542;2023-03-14T14:10:49;10.80;93.30
4755;DHT22;2391;47.212;7.542;2023-03-14T14:13:17;10.70;92.70
4755;DHT22;2391;47.212;7.542;2023-03-14T14:15:47;10.60;93.20
4755;DHT22;2391;47.212;7.542;2023-03-14T14:18:16;10.50;93.40
4755;DHT22;2391;47.212;7.542;2023-03-14T14:20:45;10.40;93.80
4755;DHT22;2391;47.212;7.542;2023-03-14T14:23:20;10.30;94.10
4755;DHT22;2391;47.212;7.542;2023-03-14T14:25:49;10.30;94.60
4755;DHT22;2391;47.212;7.542;2023-03-14T14:28:32;10.20;94.90
4755;DHT22;2391;47.212;7.542;2023-03-14T14:31:22;10.20;94.70
4755;DHT22;2391;47.212;7.542;2023-03-14T14:34:01;10.30;94.90
4755;DHT22;2391;47.212;7.542;2023-03-14T14:36:39;10.20;95.00
4755;DHT22;2391;47.212;7.542;2023-03-14T14:41:47;10.20;95.10
4755;DHT22;2391;47.212;7.542;2023-03-14T14:44:14;10.20;95.10
4755;DHT22;2391;47.212;7.542;2023-03-14T14:46:42;10.20;95.50
4755;DHT22;2391;47.212;7.542;2023-03-14T14:49:18;10.30;95.40
4755;DHT22;2391;47.212;7.542;2023-03-14T14:51:48;10.40;95.50
4755;DHT22;2391;47.212;7.542;2023-03-14T14:54:32;10.40;95.60
4755;DHT22;2391;47.212;7.542;2023-03-14T14:56:47;10.40;95.70
4755;DHT22;2391;47.212;7.542;2023-03-14T14:59:25;10.40;95.80
4755;DHT22;2391;47.212;7.542;2023-03-14T15:02:01;10.40;95.90
4755;DHT22;2391;47.212;7.542;2023-03-14T15:04:32;10.30;96.10
4755;DHT22;2391;47.212;7.542;2023-03-14T15:06:57;10.30;96.70
4755;DHT22;2391;47.212;7.542;2023-03-14T15:09:23;10.20;97.10
4755;DHT22;2391;47.212;7.542;2023-03-14T15:11:49;10.20;97.00
4755;DHT22;2391;47.212;7.542;2023-03-14T15:14:15;10.30;96.90
4755;DHT22;2391;47.212;7.542;2023-03-14T15:16:41;10.40;97.00
4755;DHT22;2391;47.212;7.542;2023-03-14T15:19:19;10.40;96.80
4755;DHT22;2391;47.212;7.542;2023-03-14T15:21:42;10.40;96.80
4755;DHT22;2391;47.212;7.542;2023-03-14T15:24:09;10.50;96.90
4755;DHT22;2391;47.212;7.542;2023-03-14T15:26:35;10.40;96.70
4755;DHT22;2391;47.212;7.542;2023-03-14T15:29:00;10.40;96.60
4755;DHT22;2391;47.212;7.542;2023-03-14T15:31:26;10.50;96.70
4755;DHT22;2391;47.212;7.542;2023-03-14T15:33:52;10.40;96.70
4755;DHT22;2391;47.212;7.542;2023-03-14T15:36:27;10.50;96.50
4755;DHT22;2391;47.212;7.542;2023-03-14T15:38:54;10.40;96.40
4755;DHT22;2391;47.212;7.542;2023-03-14T15:41:21;10.30;96.50
4755;DHT22;2391;47.212;7.542;2023-03-14T15:43:47;10.20;96.70
4755;DHT22;2391;47.212;7.542;2023-03-14T15:46:14;10.10;96.70
4755;DHT22;2391;47.212;7.542;2023-03-14T15:48:43;10.00;96.50
4755;DHT22;2391;47.212;7.542;2023-03-14T15:51:10;9.90;97.10
4755;DHT22;2391;47.212;7.542;2023-03-14T15:53:36;9.80;97.40
4755;DHT22;2391;47.212;7.542;2023-03-14T15:56:06;9.80;97.60
4755;DHT22;2391;47.212;7.542;2023-03-14T15:58:33;9.80;97.40
4755;DHT22;2391;47.212;7.542;2023-03-14T16:01:04;9.80;97.50
4755;DHT22;2391;47.212;7.542;2023-03-14T16:03:30;9.70;97.60
4755;DHT22;2391;47.212;7.542;2023-03-14T16:05:55;9.70;97.30
4755;DHT22;2391;47.212;7.542;2023-03-14T16:08:22;9.60;97.50
4755;DHT22;2391;47.212;7.542;2023-03-14T16:10:48;9.60;97.70
4755;DHT22;2391;47.212;7.542;2023-03-14T16:13:15;9.60;97.60
4755;DHT22;2391;47.212;7.542;2023-03-14T16:15:41;9.60;97.60
4755;DHT22;2391;47.212;7.542;2023-03-14T16:18:06;9.60;97.90
4755;DHT22;2391;47.212;7.542;2023-03-14T16:20:32;9.80;97.70
4755;DHT22;2391;47.212;7.542;2023-03-14T16:22:58;9.80;97.40
4755;DHT22;2391;47.212;7.542;2023-03-14T16:25:23;9.80;97.30
4755;DHT22;2391;47.212;7.542;2023-03-14T16:27:49;9.70;97.30
4755;DHT22;2391;47.212;7.542;2023-03-14T16:30:15;9.60;97.20
4755;DHT22;2391;47.212;7.542;2023-03-14T16:32:41;9.60;97.30
4755;DHT22;2391;47.212;7.542;2023-03-14T16:35:07;9.60;97.30
4755;DHT22;2391;47.212;7.542;2023-03-14T16:37:33;9.60;97.40
4755;DHT22;2391;47.212;7.542;2023-03-14T16:39:58;9.70;97.60
4755;DHT22;2391;47.212;7.542;2023-03-14T16:42:24;9.60;97.70
4755;DHT22;2391;47.212;7.542;2023-03-14T16:44:50;9.70;97.80
4755;DHT22;2391;47.212;7.542;2023-03-14T16:47:16;9.70;97.40
4755;DHT22;2391;47.212;7.542;2023-03-14T16:49:41;9.80;97.20
4755;DHT22;2391;47.212;7.542;2023-03-14T16:52:08;9.80;96.90
4755;DHT22;2391;47.212;7.542;2023-03-14T16:54:34;9.80;96.40
4755;DHT22;2391;47.212;7.542;2023-03-14T16:57:00;9.70;96.00
4755;DHT22;2391;47.212;7.542;2023-03-14T16:59:26;9.60;96.10
4755;DHT22;2391;47.212;7.542;2023-03-14T17:01:54;9.60;96.40
4755;DHT22;2391;47.212;7.542;2023-03-14T17:04:21;9.50;96.60
4755;DHT22;2391;47.212;7.542;2023-03-14T17:06:48;9.50;96.90
4755;DHT22;2391;47.212;7.542;2023-03-14T17:09:14;9.50;97.10
4755;DHT22;2391;47.212;7.542;2023-03-14T17:11:39;9.40;97.00
4755;DHT22;2391;47.212;7.542;2023-03-14T17:14:05;9.50;97.00
4755;DHT22;2391;47.212;7.542;2023-03-14T17:16:31;9.40;97.40
4755;DHT22;2391;47.212;7.542;2023-03-14T17:18:57;9.30;97.80
4755;DHT22;2391;47.212;7.542;2023-03-14T17:21:23;9.10;98.10